createdAt,value
2022-08-28T00:01:20.242Z,0.40
2022-08-28T00:06:23.949Z,0.60
2022-08-28T00:11:28.931Z,0.60
2022-08-28T00:16:33.547Z,0.50
2022-08-28T00:21:37.253Z,0.60
2022-08-28T00:26:59.782Z,0.40
2022-08-28T00:32:04.052Z,0.40
2022-08-28T00:37:07.947Z,0.30
2022-08-28T00:42:12.940Z,0.40
2022-08-28T00:47:16.602Z,0.50
2022-08-28T00:52:20.902Z,0.30
2022-08-28T00:57:32.138Z,0.40
2022-08-28T01:02:35.917Z,0.30
2022-08-28T01:07:40.332Z,0.40
2022-08-28T01:12:46.454Z,0.40
2022-08-28T01:17:53.851Z,0.50
2022-08-28T01:23:07.438Z,0.40
2022-08-28T01:28:15.405Z,0.50
2022-08-28T01:33:19.623Z,0.50
2022-08-28T01:38:31.586Z,0.40
2022-08-28T01:43:36.722Z,0.40
2022-08-28T01:48:43.488Z,0.50
2022-08-28T01:53:47.152Z,0.53
2022-08-28T01:58:52.882Z,0.40
2022-08-28T02:03:56.640Z,0.30
2022-08-28T02:09:00.806Z,0.30
2022-08-28T02:14:06.083Z,0.50
2022-08-28T02:19:09.767Z,0.50
2022-08-28T02:24:13.513Z,0.47
2022-08-28T02:29:18.614Z,0.40
2022-08-28T02:34:23.059Z,0.30
2022-08-28T02:39:26.851Z,0.40
2022-08-28T02:44:31.963Z,0.40
2022-08-28T02:49:36.292Z,0.40
2022-08-28T02:54:40.983Z,0.40
2022-08-28T02:59:47.690Z,0.50
2022-08-28T03:04:51.613Z,0.30
2022-08-28T03:09:55.495Z,0.50
2022-08-28T03:15:00.559Z,0.30
2022-08-28T03:20:05.839Z,0.43
2022-08-28T03:25:10.507Z,0.40
2022-08-28T03:30:16.316Z,0.50
2022-08-28T03:35:21.915Z,0.50
2022-08-28T03:40:25.976Z,0.50
2022-08-28T03:45:31.550Z,0.40
2022-08-28T03:50:36.818Z,0.40
2022-08-28T03:55:41.819Z,0.40
2022-08-28T04:00:47.541Z,0.50
2022-08-28T04:05:51.810Z,0.53
2022-08-28T04:10:55.976Z,0.40
2022-08-28T04:16:02.733Z,0.50
2022-08-28T04:21:13.281Z,0.47
2022-08-28T04:26:19.505Z,0.47
2022-08-28T04:31:32.066Z,0.70
2022-08-28T04:36:36.923Z,0.60
2022-08-28T04:41:40.663Z,0.53
2022-08-28T04:46:48.308Z,0.70
2022-08-28T04:51:52.157Z,0.60
2022-08-28T04:56:55.817Z,0.70
2022-08-28T05:02:00.903Z,0.70
2022-08-28T05:07:04.672Z,0.90
2022-08-28T05:12:08.465Z,0.80
2022-08-28T05:17:13.746Z,1.00
2022-08-28T05:22:17.364Z,0.80
2022-08-28T05:27:20.998Z,0.80
2022-08-28T05:32:25.922Z,0.90
2022-08-28T05:37:29.450Z,0.90
2022-08-28T05:42:35.917Z,1.10
2022-08-28T05:47:43.966Z,0.80
2022-08-28T05:52:47.669Z,1.10
2022-08-28T05:57:51.299Z,1.23
2022-08-28T06:02:56.225Z,1.13
2022-08-28T06:07:59.888Z,1.03
2022-08-28T06:13:03.662Z,1.40
2022-08-28T06:18:08.709Z,1.13
2022-08-28T06:23:14.869Z,1.00
2022-08-28T06:28:27.855Z,1.27
2022-08-28T06:33:32.882Z,1.23
2022-08-28T06:38:36.907Z,1.07
2022-08-28T06:43:40.541Z,1.00
2022-08-28T06:48:45.540Z,1.30
2022-08-28T06:53:49.525Z,1.10
2022-08-28T06:58:53.220Z,1.50
2022-08-28T07:04:00.683Z,1.13
2022-08-28T07:09:06.295Z,1.60
2022-08-28T07:14:09.930Z,1.20
2022-08-28T07:19:14.987Z,1.20
2022-08-28T07:24:19.147Z,1.27
2022-08-28T07:29:23.310Z,1.00
2022-08-28T07:34:28.373Z,1.37
2022-08-28T07:39:32.005Z,1.13
2022-08-28T07:44:50.516Z,1.40
2022-08-28T07:49:55.906Z,1.30
2022-08-28T07:54:59.516Z,1.50
2022-08-28T08:00:03.391Z,1.47
2022-08-28T08:05:16.344Z,1.30
2022-08-28T08:10:20.672Z,1.23
2022-08-28T08:15:28.314Z,1.30
2022-08-28T08:20:35.794Z,1.10
2022-08-28T08:25:39.403Z,1.00
2022-08-28T08:30:43.553Z,0.90
2022-08-28T08:35:48.644Z,1.50
2022-08-28T08:40:52.642Z,1.30
2022-08-28T08:45:56.403Z,1.10
2022-08-28T08:51:06.384Z,0.90
2022-08-28T08:56:15.439Z,1.10
2022-08-28T09:01:25.013Z,0.90
2022-08-28T09:06:37.739Z,1.20
2022-08-28T09:11:52.057Z,1.27
2022-08-28T09:17:01.643Z,1.30
2022-08-28T09:22:06.650Z,0.80
2022-08-28T09:27:24.171Z,1.00
2022-08-28T09:32:32.923Z,0.80
2022-08-28T09:37:38.559Z,1.10
2022-08-28T09:42:59.834Z,1.00
2022-08-28T09:48:09.410Z,0.63
2022-08-28T09:53:21.057Z,0.77
2022-08-28T09:58:30.900Z,0.90
2022-08-28T10:03:38.383Z,0.60
2022-08-28T10:08:59.881Z,0.93
2022-08-28T10:14:14.874Z,0.90
2022-08-28T10:19:33.161Z,0.80
2022-08-28T10:24:52.214Z,0.90
2022-08-28T10:30:08.906Z,0.80
2022-08-28T10:35:20.670Z,0.60
2022-08-28T10:40:30.154Z,0.70
2022-08-28T10:45:35.798Z,0.87
2022-08-28T10:50:44.729Z,0.73
2022-08-28T10:55:56.166Z,0.80
2022-08-28T11:01:03.636Z,0.77
2022-08-28T11:06:15.163Z,0.70
2022-08-28T11:11:43.525Z,0.80
2022-08-28T11:16:50.023Z,0.90
2022-08-28T11:21:56.494Z,0.70
2022-08-28T11:27:16.778Z,1.10
2022-08-28T11:32:56.676Z,0.60
2022-08-28T11:38:00.284Z,0.67
2022-08-28T11:43:40.250Z,0.70
2022-08-28T11:48:50.536Z,0.60
2022-08-28T11:54:04.327Z,0.77
2022-08-28T11:59:35.224Z,0.80
2022-08-28T12:04:43.736Z,0.83
2022-08-28T12:09:48.722Z,0.73
2022-08-28T12:15:11.128Z,0.70
2022-08-28T12:20:37.678Z,0.73
2022-08-28T12:25:44.255Z,0.77
2022-08-28T12:30:58.208Z,0.90
2022-08-28T12:36:04.274Z,0.70
2022-08-28T12:41:16.904Z,0.47
2022-08-28T12:46:29.886Z,0.50
2022-08-28T12:51:36.080Z,0.90
2022-08-28T12:56:40.179Z,0.83
2022-08-28T13:01:45.552Z,0.60
2022-08-28T13:06:49.254Z,1.00
2022-08-28T13:11:54.248Z,0.70
2022-08-28T13:16:59.329Z,0.43
2022-08-28T13:22:05.131Z,0.60
2022-08-28T13:27:18.225Z,0.80
2022-08-28T13:32:24.373Z,0.50
2022-08-28T13:37:46.621Z,0.80
2022-08-28T13:42:50.695Z,0.50
2022-08-28T13:47:56.186Z,0.60
2022-08-28T13:52:59.899Z,0.57
2022-08-28T13:58:03.906Z,0.70
2022-08-28T14:03:26.183Z,0.70
2022-08-28T14:08:29.842Z,0.60
2022-08-28T14:13:33.574Z,0.60
2022-08-28T14:18:38.619Z,0.80
2022-08-28T14:23:42.197Z,0.70
2022-08-28T14:28:45.818Z,0.60
2022-08-28T14:33:50.829Z,0.47
2022-08-28T14:38:56.534Z,0.80
2022-08-28T14:44:00.526Z,0.60
2022-08-28T14:49:07.592Z,0.67
2022-08-28T14:54:12.931Z,0.70
2022-08-28T14:59:23.662Z,0.80
2022-08-28T15:04:34.425Z,0.53
2022-08-28T15:09:41.332Z,0.67
2022-08-28T15:14:54.653Z,0.60
2022-08-28T15:20:02.142Z,0.63
2022-08-28T15:25:07.237Z,0.60
2022-08-28T15:30:12.610Z,0.60
2022-08-28T15:35:17.694Z,0.63
2022-08-28T15:40:39.360Z,0.50
2022-08-28T15:45:44.027Z,0.50
2022-08-28T15:50:49.135Z,0.60
2022-08-28T15:55:53.186Z,0.33
2022-08-28T16:00:56.903Z,0.60
2022-08-28T16:06:03.333Z,0.50
2022-08-28T16:11:07.550Z,0.50
2022-08-28T16:16:11.264Z,0.70
2022-08-28T16:21:16.498Z,0.40
2022-08-28T16:26:21.067Z,0.50
2022-08-28T16:31:25.561Z,0.50
2022-08-28T16:36:30.652Z,0.50
2022-08-28T16:41:34.311Z,0.50
2022-08-28T16:46:38.058Z,0.70
2022-08-28T16:51:43.129Z,0.90
2022-08-28T16:56:47.432Z,0.53
2022-08-28T17:01:52.769Z,0.70
2022-08-28T17:06:58.206Z,0.73
2022-08-28T17:12:02.478Z,0.60
2022-08-28T17:17:07.803Z,0.53
2022-08-28T17:22:29.988Z,0.70
2022-08-28T17:27:33.633Z,0.40
2022-08-28T17:32:37.594Z,0.50
2022-08-28T17:37:43.006Z,0.60
2022-08-28T17:42:48.134Z,0.60
2022-08-28T17:47:52.699Z,0.50
2022-08-28T17:52:57.683Z,0.50
2022-08-28T17:58:01.475Z,0.40
2022-08-28T18:03:05.185Z,0.40
2022-08-28T18:08:10.554Z,0.40
2022-08-28T18:13:15.031Z,0.50
2022-08-28T18:18:18.773Z,0.40
2022-08-28T18:23:28.369Z,0.40
2022-08-28T18:28:33.424Z,0.43
2022-08-28T18:33:38.125Z,0.43
2022-08-28T18:38:43.980Z,0.40
2022-08-28T18:43:47.636Z,0.50
2022-08-28T18:48:53.064Z,0.50
2022-08-28T18:54:00.775Z,0.40
2022-08-28T18:59:05.093Z,0.40
2022-08-28T19:04:09.134Z,0.40
2022-08-28T19:09:19.166Z,0.50
2022-08-28T19:14:24.511Z,0.47
2022-08-28T19:19:28.693Z,0.40
2022-08-28T19:24:34.744Z,0.50
2022-08-28T19:29:38.901Z,0.40
2022-08-28T19:34:42.679Z,0.50
2022-08-28T19:39:56.252Z,0.60
2022-08-28T19:45:00.257Z,0.60
2022-08-28T19:50:04.844Z,0.50
2022-08-28T19:55:13.760Z,0.40
2022-08-28T20:00:18.962Z,0.60
2022-08-28T20:05:23.339Z,0.60
2022-08-28T20:10:28.446Z,0.60
2022-08-28T20:15:32.151Z,0.60
2022-08-28T20:20:36.257Z,0.50
2022-08-28T20:25:41.381Z,0.40
2022-08-28T20:30:46.723Z,0.40
2022-08-28T20:36:00.019Z,0.50
2022-08-28T20:41:07.060Z,0.60
2022-08-28T20:46:11.588Z,0.50
2022-08-28T20:51:15.259Z,0.60
2022-08-28T20:56:20.293Z,0.50
2022-08-28T21:01:23.952Z,0.50
2022-08-28T21:06:30.901Z,0.60
2022-08-28T21:11:36.000Z,0.70
2022-08-28T21:16:40.720Z,0.60
2022-08-28T21:21:45.283Z,0.70
2022-08-28T21:26:52.903Z,0.60
2022-08-28T21:31:56.560Z,0.63
2022-08-28T21:37:00.427Z,0.80
2022-08-28T21:42:06.073Z,0.80
2022-08-28T21:47:09.655Z,0.60
2022-08-28T21:52:13.296Z,0.70
2022-08-28T21:57:18.683Z,0.73
2022-08-28T22:02:22.432Z,0.90
2022-08-28T22:07:26.122Z,0.83
2022-08-28T22:12:31.108Z,0.70
2022-08-28T22:17:36.627Z,0.83
2022-08-28T22:22:57.814Z,0.90
2022-08-28T22:28:02.815Z,0.70
2022-08-28T22:33:06.726Z,0.80
2022-08-28T22:38:11.180Z,0.70
2022-08-28T22:43:16.626Z,0.80
2022-08-28T22:48:20.514Z,1.10
2022-08-28T22:53:24.072Z,0.73
2022-08-28T22:58:29.950Z,0.90
2022-08-28T23:03:33.776Z,0.70
2022-08-28T23:08:37.698Z,0.80
2022-08-28T23:13:42.978Z,0.80
2022-08-28T23:19:06.596Z,0.80
2022-08-28T23:24:10.456Z,1.00
2022-08-28T23:29:15.676Z,0.70
2022-08-28T23:34:19.326Z,0.80
2022-08-28T23:39:22.998Z,0.97
2022-08-28T23:44:29.720Z,0.60
2022-08-28T23:49:34.787Z,0.90
2022-08-28T23:54:46.532Z,0.70
2022-08-28T23:59:51.761Z,0.70
